createdAt,value
2019-04-03T00:01:06.972Z,11.40
2019-04-03T00:03:36.282Z,11.50
2019-04-03T00:06:06.052Z,11.60
2019-04-03T00:08:36.658Z,11.50
2019-04-03T00:11:08.554Z,11.60
2019-04-03T00:13:37.329Z,11.70
2019-04-03T00:16:06.631Z,11.70
2019-04-03T00:19:13.541Z,11.70
2019-04-03T00:21:42.877Z,11.70
2019-04-03T00:24:12.154Z,11.70
2019-04-03T00:26:41.545Z,11.70
2019-04-03T00:29:10.827Z,11.70
2019-04-03T00:31:40.091Z,11.70
2019-04-03T00:34:09.425Z,11.80
2019-04-03T00:36:38.707Z,11.90
2019-04-03T00:39:08.228Z,12.00
2019-04-03T00:41:37.530Z,12.10
2019-04-03T00:44:06.787Z,12.20
2019-04-03T00:46:36.119Z,12.20
2019-04-03T00:49:05.534Z,12.10
2019-04-03T00:51:34.833Z,11.80
2019-04-03T00:54:04.313Z,11.70
2019-04-03T01:00:19.803Z,11.20
2019-04-03T01:02:49.079Z,11.10
2019-04-03T01:05:18.494Z,11.20
2019-04-03T01:07:47.749Z,11.20
2019-04-03T01:10:17.063Z,11.40
2019-04-03T01:12:46.298Z,11.40
2019-04-03T01:15:15.811Z,11.40
2019-04-03T01:17:45.489Z,11.30
2019-04-03T01:20:14.894Z,11.30
2019-04-03T01:22:44.156Z,11.30
2019-04-03T01:25:13.427Z,11.50
2019-04-03T01:27:42.723Z,11.50
2019-04-03T01:30:13.955Z,11.50
2019-04-03T01:32:43.089Z,11.60
2019-04-03T01:35:12.337Z,11.60
2019-04-03T01:37:49.269Z,11.80
2019-04-03T01:40:20.096Z,11.80
2019-04-03T01:42:50.714Z,11.80
2019-04-03T01:45:20.272Z,11.90
2019-04-03T01:48:08.879Z,11.90
2019-04-03T01:50:38.198Z,12.10
2019-04-03T01:53:07.629Z,12.10
2019-04-03T01:55:36.898Z,12.00
2019-04-03T01:58:07.086Z,12.00
2019-04-03T02:00:37.632Z,12.00
2019-04-03T02:03:09.749Z,12.10
2019-04-03T02:05:38.419Z,12.10
2019-04-03T02:08:07.718Z,11.90
2019-04-03T02:10:36.983Z,11.90
2019-04-03T02:13:06.311Z,11.90
2019-04-03T02:15:35.559Z,11.80
2019-04-03T02:18:04.906Z,11.70
2019-04-03T02:20:35.651Z,11.60
2019-04-03T02:23:04.993Z,11.60
2019-04-03T02:25:34.386Z,11.30
2019-04-03T02:28:04.446Z,11.20
2019-04-03T02:30:33.975Z,11.10
2019-04-03T02:33:03.484Z,11.10
2019-04-03T02:35:33.960Z,11.10
2019-04-03T02:38:03.575Z,11.10
2019-04-03T02:40:33.287Z,11.00
2019-04-03T02:43:02.619Z,11.00
2019-04-03T02:45:31.951Z,11.10
2019-04-03T02:48:17.109Z,11.20
2019-04-03T02:54:35.761Z,10.90
2019-04-03T02:57:05.063Z,10.70
2019-04-03T02:59:34.369Z,10.80
2019-04-03T03:02:03.772Z,10.90
2019-04-03T03:04:33.889Z,10.90
2019-04-03T03:07:05.057Z,10.90
2019-04-03T03:09:35.055Z,10.90
2019-04-03T03:12:04.721Z,10.90
2019-04-03T03:14:38.130Z,10.90
2019-04-03T03:17:07.115Z,11.10
2019-04-03T03:20:13.925Z,11.00
2019-04-03T03:23:22.418Z,11.00
2019-04-03T03:25:51.503Z,10.90
2019-04-03T03:28:22.545Z,10.80
2019-04-03T03:30:59.966Z,11.00
2019-04-03T03:37:12.619Z,11.00
2019-04-03T03:43:29.886Z,11.10
2019-04-03T03:45:59.586Z,11.20
2019-04-03T03:48:29.809Z,11.20
2019-04-03T03:51:00.362Z,11.40
2019-04-03T03:53:30.238Z,11.40
2019-04-03T03:56:00.728Z,11.50
2019-04-03T03:58:30.606Z,11.60
2019-04-03T04:01:01.021Z,11.60
2019-04-03T04:03:30.643Z,11.60
2019-04-03T04:06:00.017Z,11.60
2019-04-03T04:08:30.673Z,11.60
2019-04-03T04:11:01.024Z,11.50
2019-04-03T04:13:30.617Z,11.40
2019-04-03T04:16:37.715Z,11.30
2019-04-03T04:19:07.724Z,11.20
2019-04-03T04:21:37.730Z,10.80
2019-04-03T04:24:07.056Z,10.70
2019-04-03T04:31:01.453Z,10.70
2019-04-03T04:33:32.279Z,10.70
2019-04-03T04:36:01.591Z,10.80
2019-04-03T04:38:32.221Z,10.80
2019-04-03T04:41:02.199Z,10.90
2019-04-03T04:43:31.550Z,11.00
2019-04-03T04:46:01.551Z,11.10
2019-04-03T04:48:30.904Z,11.10
2019-04-03T04:51:00.385Z,11.20
2019-04-03T04:53:30.236Z,11.20
2019-04-03T04:55:59.793Z,11.20
2019-04-03T04:58:29.257Z,11.20
2019-04-03T05:00:58.922Z,11.20
2019-04-03T05:03:28.532Z,11.30
2019-04-03T05:05:59.220Z,11.20
2019-04-03T05:08:32.620Z,11.20
2019-04-03T05:10:59.490Z,11.20
2019-04-03T05:13:28.996Z,11.20
2019-04-03T05:15:58.355Z,11.20
2019-04-03T05:18:29.292Z,11.20
2019-04-03T05:20:58.613Z,11.20
2019-04-03T05:23:28.199Z,11.10
2019-04-03T05:25:59.229Z,11.00
2019-04-03T05:28:28.635Z,10.90
2019-04-03T05:30:57.902Z,10.70
2019-04-03T05:33:27.422Z,10.60
2019-04-03T05:35:56.852Z,10.50
2019-04-03T05:38:26.079Z,10.40
2019-04-03T05:40:56.463Z,10.40
2019-04-03T05:43:26.379Z,10.30
2019-04-03T05:45:55.635Z,10.30
2019-04-03T05:48:24.959Z,10.30
2019-04-03T05:50:57.614Z,10.40
2019-04-03T05:53:25.705Z,10.40
2019-04-03T05:55:55.161Z,10.50
2019-04-03T05:58:24.620Z,10.60
2019-04-03T06:01:04.304Z,10.60
2019-04-03T06:03:38.810Z,10.40
2019-04-03T06:05:57.584Z,10.40
2019-04-03T06:08:26.904Z,10.30
2019-04-03T06:10:56.235Z,10.30
2019-04-03T06:13:25.588Z,10.40
2019-04-03T06:15:54.898Z,10.50
2019-04-03T06:18:26.520Z,10.60
2019-04-03T06:20:55.287Z,10.70
2019-04-03T06:23:24.596Z,10.70
2019-04-03T06:25:55.224Z,10.70
2019-04-03T06:28:24.472Z,10.80
2019-04-03T06:30:55.602Z,10.90
2019-04-03T06:33:24.911Z,10.80
2019-04-03T06:35:54.226Z,10.80
2019-04-03T06:38:25.222Z,10.80
2019-04-03T06:40:54.973Z,10.70
2019-04-03T06:43:24.298Z,10.80
2019-04-03T06:45:56.987Z,10.90
2019-04-03T06:48:26.035Z,11.00
2019-04-03T06:50:55.290Z,11.00
2019-04-03T06:53:27.746Z,11.00
2019-04-03T06:55:55.464Z,11.10
2019-04-03T06:58:29.616Z,11.20
2019-04-03T07:00:55.824Z,11.10
2019-04-03T07:03:25.125Z,11.20
2019-04-03T07:05:54.375Z,11.20
2019-04-03T07:08:32.585Z,11.20
2019-04-03T07:10:55.890Z,11.20
2019-04-03T07:13:25.228Z,11.30
2019-04-03T07:15:55.865Z,11.30
2019-04-03T07:18:25.406Z,11.30
2019-04-03T07:20:54.704Z,11.20
2019-04-03T07:23:23.978Z,11.20
2019-04-03T07:25:53.271Z,11.30
2019-04-03T07:28:22.664Z,11.30
2019-04-03T07:30:53.585Z,11.20
2019-04-03T07:33:22.990Z,11.10
2019-04-03T07:35:52.502Z,11.00
2019-04-03T07:38:22.705Z,10.80
2019-04-03T07:40:52.462Z,10.60
2019-04-03T07:43:21.991Z,10.40
2019-04-03T07:45:51.266Z,10.30
2019-04-03T07:48:20.691Z,10.20
2019-04-03T07:50:49.962Z,10.10
2019-04-03T07:53:19.921Z,10.00
2019-04-03T07:55:49.946Z,10.00
2019-04-03T07:58:19.256Z,10.10
2019-04-03T08:00:48.583Z,10.10
2019-04-03T08:03:20.020Z,10.20
2019-04-03T08:05:49.262Z,10.20
2019-04-03T08:08:18.999Z,10.20
2019-04-03T08:10:48.317Z,10.20
2019-04-03T08:13:17.534Z,10.20
2019-04-03T08:15:46.770Z,10.30
2019-04-03T08:18:16.023Z,10.30
2019-04-03T08:20:45.410Z,10.30
2019-04-03T08:23:17.673Z,10.30
2019-04-03T08:25:48.567Z,10.30
2019-04-03T08:28:17.970Z,10.30
2019-04-03T08:30:47.340Z,10.30
2019-04-03T08:33:25.277Z,10.30
2019-04-03T08:35:50.968Z,10.30
2019-04-03T08:38:20.422Z,10.30
2019-04-03T08:40:51.555Z,10.30
2019-04-03T08:43:21.111Z,10.20
2019-04-03T08:45:50.681Z,10.20
2019-04-03T08:48:20.131Z,10.20
2019-04-03T08:50:49.817Z,10.10
2019-04-03T08:53:19.215Z,10.10
2019-04-03T08:55:49.595Z,10.20
2019-04-03T08:58:21.335Z,10.10
2019-04-03T09:00:50.714Z,10.00
2019-04-03T09:03:20.542Z,9.90
2019-04-03T09:05:51.060Z,9.90
2019-04-03T09:08:20.991Z,9.80
2019-04-03T09:10:50.454Z,9.50
2019-04-03T09:13:22.937Z,9.20
2019-04-03T09:15:51.057Z,9.00
2019-04-03T09:18:22.062Z,9.00
2019-04-03T09:20:51.491Z,9.10
2019-04-03T09:23:20.747Z,9.30
2019-04-03T09:25:50.206Z,9.30
2019-04-03T09:28:19.934Z,9.30
2019-04-03T09:30:49.206Z,9.40
2019-04-03T09:33:18.834Z,9.50
2019-04-03T09:35:48.198Z,9.60
2019-04-03T09:38:17.452Z,9.70
2019-04-03T09:40:48.302Z,9.80
2019-04-03T09:43:17.954Z,9.80
2019-04-03T09:45:47.371Z,9.80
2019-04-03T09:48:16.673Z,9.80
2019-04-03T09:50:47.181Z,9.80
2019-04-03T09:53:16.718Z,9.80
2019-04-03T09:55:46.045Z,9.80
2019-04-03T09:58:16.976Z,9.90
2019-04-03T10:00:46.321Z,9.80
2019-04-03T10:03:15.695Z,9.80
2019-04-03T10:05:45.194Z,9.80
2019-04-03T10:08:14.679Z,9.80
2019-04-03T10:10:44.973Z,9.90
2019-04-03T10:13:16.769Z,10.00
2019-04-03T10:15:46.091Z,9.90
2019-04-03T10:18:16.904Z,10.00
2019-04-03T10:20:48.674Z,10.10
2019-04-03T10:23:17.192Z,10.00
2019-04-03T10:25:47.984Z,10.00
2019-04-03T10:28:17.541Z,10.00
2019-04-03T10:30:46.933Z,10.10
2019-04-03T10:33:16.484Z,10.20
2019-04-03T10:35:47.446Z,10.10
2019-04-03T10:38:18.282Z,10.10
2019-04-03T10:40:48.001Z,10.00
2019-04-03T10:43:17.646Z,9.90
2019-04-03T10:45:47.107Z,9.90
2019-04-03T10:48:16.665Z,10.00
2019-04-03T10:50:45.993Z,10.10
2019-04-03T10:53:19.971Z,10.10
2019-04-03T10:55:49.156Z,10.10
2019-04-03T10:58:19.550Z,10.20
2019-04-03T11:00:50.215Z,10.10
2019-04-03T11:03:19.654Z,10.20
2019-04-03T11:05:48.932Z,10.20
2019-04-03T11:08:18.527Z,10.40
2019-04-03T11:10:47.846Z,10.50
2019-04-03T11:13:17.306Z,10.50
2019-04-03T11:15:46.919Z,10.50
2019-04-03T11:18:16.319Z,10.70
2019-04-03T11:20:45.575Z,10.70
2019-04-03T11:23:14.883Z,10.60
2019-04-03T11:25:46.040Z,10.60
2019-04-03T11:28:16.141Z,10.40
2019-04-03T11:30:45.537Z,10.40
2019-04-03T11:33:14.855Z,10.30
2019-04-03T11:35:44.397Z,10.40
2019-04-03T11:38:24.074Z,10.40
2019-04-03T11:40:45.526Z,10.40
2019-04-03T11:43:14.868Z,10.40
2019-04-03T11:45:44.170Z,10.50
2019-04-03T11:48:14.916Z,10.80
2019-04-03T11:50:44.447Z,11.00
2019-04-03T11:53:16.485Z,11.20
2019-04-03T11:55:45.732Z,11.40
2019-04-03T11:58:18.015Z,11.70
2019-04-03T12:00:49.186Z,12.30
2019-04-03T12:03:18.675Z,13.80
2019-04-03T12:05:48.379Z,15.20
2019-04-03T12:08:17.674Z,15.50
2019-04-03T12:10:47.291Z,15.00
2019-04-03T12:13:16.595Z,14.60
2019-04-03T12:15:46.042Z,14.30
2019-04-03T12:18:18.270Z,13.70
2019-04-03T12:20:49.554Z,13.20
2019-04-03T12:23:18.702Z,12.80
2019-04-03T12:25:48.023Z,12.60
2019-04-03T12:28:18.426Z,12.50
2019-04-03T12:30:49.705Z,12.50
2019-04-03T12:33:21.209Z,12.70
2019-04-03T12:35:49.973Z,12.80
2019-04-03T12:38:20.119Z,12.90
2019-04-03T12:40:50.300Z,12.80
2019-04-03T12:43:19.835Z,12.50
2019-04-03T12:45:49.219Z,12.30
2019-04-03T12:48:20.924Z,12.20
2019-04-03T12:50:50.438Z,12.10
2019-04-03T12:53:19.755Z,12.10
2019-04-03T12:55:49.279Z,12.20
2019-04-03T12:58:19.948Z,12.30
2019-04-03T13:00:49.285Z,12.20
2019-04-03T13:03:19.350Z,12.30
2019-04-03T13:05:51.741Z,12.40
2019-04-03T13:08:21.821Z,12.60
2019-04-03T13:10:51.354Z,12.70
2019-04-03T13:13:22.567Z,12.80
2019-04-03T13:15:52.004Z,13.00
2019-04-03T13:18:21.411Z,13.10
2019-04-03T13:20:50.984Z,13.10
2019-04-03T13:23:20.364Z,13.00
2019-04-03T13:25:51.011Z,13.20
2019-04-03T13:28:20.614Z,13.20
2019-04-03T13:30:49.991Z,13.30
2019-04-03T13:33:20.530Z,13.50
2019-04-03T13:35:49.966Z,13.60
2019-04-03T13:38:19.735Z,13.60
2019-04-03T13:40:49.327Z,13.80
2019-04-03T13:43:21.599Z,13.80
2019-04-03T13:45:51.201Z,14.00
2019-04-03T13:48:20.819Z,14.20
2019-04-03T13:50:54.061Z,14.30
2019-04-03T13:53:25.598Z,14.30
2019-04-03T13:55:55.775Z,14.10
2019-04-03T13:58:27.569Z,13.60
2019-04-03T14:01:01.056Z,13.50
2019-04-03T14:03:27.968Z,13.30
2019-04-03T14:05:58.065Z,13.30
2019-04-03T14:08:27.706Z,13.30
2019-04-03T14:10:58.289Z,13.40
2019-04-03T14:13:27.961Z,13.20
2019-04-03T14:15:57.266Z,13.20
2019-04-03T14:18:28.455Z,13.10
2019-04-03T14:20:58.072Z,13.10
2019-04-03T14:23:27.529Z,13.00
2019-04-03T14:26:04.766Z,13.00
2019-04-03T14:28:27.951Z,12.90
2019-04-03T14:30:57.331Z,12.90
2019-04-03T14:33:26.854Z,12.90
2019-04-03T14:35:56.653Z,12.90
2019-04-03T14:38:28.603Z,12.80
2019-04-03T14:40:58.317Z,12.70
2019-04-03T14:43:29.011Z,12.80
2019-04-03T14:45:59.534Z,12.90
2019-04-03T14:48:29.268Z,12.80
2019-04-03T14:50:58.768Z,12.80
2019-04-03T14:53:28.172Z,12.80
2019-04-03T14:55:58.587Z,12.80
2019-04-03T14:58:28.463Z,12.70
2019-04-03T15:00:57.831Z,12.60
2019-04-03T15:03:27.955Z,12.70
2019-04-03T15:05:58.130Z,12.60
2019-04-03T15:08:27.526Z,12.60
2019-04-03T15:10:56.845Z,12.50
2019-04-03T15:13:26.631Z,12.40
2019-04-03T15:15:59.230Z,12.40
2019-04-03T15:18:27.057Z,12.40
2019-04-03T15:20:56.639Z,12.40
2019-04-03T15:23:26.101Z,12.40
2019-04-03T15:25:55.809Z,12.40
2019-04-03T15:28:25.288Z,12.30
2019-04-03T15:30:54.822Z,12.30
2019-04-03T15:33:24.960Z,12.20
2019-04-03T15:35:54.621Z,12.20
2019-04-03T15:38:24.417Z,12.20
2019-04-03T15:40:57.121Z,12.10
2019-04-03T15:43:24.760Z,12.20
2019-04-03T15:45:56.611Z,12.10
2019-04-03T15:48:27.048Z,12.20
2019-04-03T15:50:56.588Z,12.30
2019-04-03T15:53:27.448Z,12.30
2019-04-03T15:55:57.013Z,12.30
2019-04-03T15:58:27.209Z,12.30
2019-04-03T16:00:57.602Z,12.30
2019-04-03T16:03:27.411Z,12.30
2019-04-03T16:05:56.739Z,12.40
2019-04-03T16:08:26.035Z,12.30
2019-04-03T16:10:57.220Z,12.30
2019-04-03T16:13:26.345Z,12.30
2019-04-03T16:16:00.216Z,12.20
2019-04-03T16:18:27.821Z,12.10
2019-04-03T16:20:57.255Z,12.10
2019-04-03T16:23:26.634Z,12.10
2019-04-03T16:25:57.794Z,12.10
2019-04-03T16:28:28.734Z,12.20
2019-04-03T16:30:58.282Z,12.20
2019-04-03T16:33:27.840Z,12.10
2019-04-03T16:35:57.583Z,12.20
2019-04-03T16:38:29.538Z,12.30
2019-04-03T16:41:00.577Z,12.30
2019-04-03T16:43:29.929Z,12.30
2019-04-03T16:45:59.191Z,12.30
2019-04-03T16:48:28.964Z,12.40
2019-04-03T16:50:59.725Z,12.40
2019-04-03T16:53:32.199Z,12.50
2019-04-03T16:56:05.056Z,12.40
2019-04-03T16:58:33.505Z,12.40
2019-04-03T17:01:02.918Z,12.50
2019-04-03T17:03:33.757Z,12.50
2019-04-03T17:06:03.700Z,12.40
2019-04-03T17:08:33.180Z,12.40
2019-04-03T17:11:02.874Z,12.40
2019-04-03T17:13:32.153Z,12.30
2019-04-03T17:16:02.380Z,12.30
2019-04-03T17:18:31.854Z,12.30
2019-04-03T17:21:01.246Z,12.30
2019-04-03T17:23:30.832Z,12.30
2019-04-03T17:26:00.234Z,12.30
2019-04-03T17:28:30.050Z,12.30
2019-04-03T17:31:02.123Z,12.30
2019-04-03T17:33:32.339Z,12.10
2019-04-03T17:36:02.762Z,12.10
2019-04-03T17:38:33.326Z,12.20
2019-04-03T17:41:05.054Z,12.30
2019-04-03T17:43:35.116Z,12.20
2019-04-03T17:46:04.547Z,12.20
2019-04-03T17:48:33.866Z,12.20
2019-04-03T17:51:04.773Z,12.30
2019-04-03T17:53:34.853Z,12.30
2019-04-03T17:56:05.235Z,12.20
2019-04-03T17:58:34.603Z,12.20
2019-04-03T18:01:04.036Z,12.00
2019-04-03T18:03:33.402Z,11.90
2019-04-03T18:06:02.845Z,11.80
2019-04-03T18:08:33.525Z,11.60
2019-04-03T18:11:02.771Z,11.40
2019-04-03T18:13:32.104Z,11.30
2019-04-03T18:16:01.377Z,11.00
2019-04-03T18:18:33.210Z,10.80
2019-04-03T18:21:01.839Z,10.60
2019-04-03T18:23:31.173Z,10.40
2019-04-03T18:26:00.507Z,10.40
2019-04-03T18:28:29.867Z,10.40
2019-04-03T18:30:59.263Z,10.40
2019-04-03T18:33:28.795Z,10.40
2019-04-03T18:35:58.176Z,10.50
2019-04-03T18:38:27.449Z,10.50
2019-04-03T18:40:56.778Z,10.50
2019-04-03T18:43:26.035Z,10.50
2019-04-03T18:45:55.877Z,10.50
2019-04-03T18:48:26.463Z,10.50
2019-04-03T18:51:15.163Z,10.40
2019-04-03T18:53:44.575Z,10.30
2019-04-03T18:56:15.532Z,10.30
2019-04-03T18:58:44.987Z,10.30
2019-04-03T19:01:16.963Z,10.30
2019-04-03T19:03:45.352Z,10.20
2019-04-03T19:06:17.848Z,10.20
2019-04-03T19:08:49.815Z,10.00
2019-04-03T19:11:18.186Z,9.90
2019-04-03T19:13:49.259Z,9.70
2019-04-03T19:16:43.979Z,9.70
2019-04-03T19:19:08.769Z,9.70
2019-04-03T19:21:38.140Z,9.70
2019-04-03T19:24:07.454Z,9.70
2019-04-03T19:26:56.090Z,9.60
2019-04-03T19:29:26.704Z,9.60
2019-04-03T19:31:55.940Z,9.60
2019-04-03T19:34:44.550Z,9.50
2019-04-03T19:37:16.666Z,9.50
2019-04-03T19:39:46.031Z,9.60
2019-04-03T19:42:18.046Z,9.60
2019-04-03T19:44:49.198Z,9.50
2019-04-03T19:47:18.335Z,9.60
2019-04-03T19:49:48.137Z,9.50
2019-04-03T19:52:17.737Z,9.50
2019-04-03T19:54:47.071Z,9.60
2019-04-03T19:57:16.335Z,9.50
2019-04-03T19:59:45.607Z,9.50
2019-04-03T20:02:14.955Z,9.50
2019-04-03T20:04:47.714Z,9.50
2019-04-03T20:07:21.104Z,9.60
2019-04-03T20:09:52.187Z,9.50
2019-04-03T20:12:21.448Z,9.50
2019-04-03T20:14:58.001Z,9.50
2019-04-03T20:17:22.797Z,9.40
2019-04-03T20:19:52.634Z,9.10
2019-04-03T20:22:21.917Z,8.90
2019-04-03T20:24:59.923Z,8.90
2019-04-03T20:27:24.428Z,9.00
2019-04-03T20:29:53.937Z,8.90
2019-04-03T20:32:25.808Z,8.90
2019-04-03T20:34:55.122Z,8.90
2019-04-03T20:37:26.189Z,8.90
2019-04-03T20:39:55.430Z,8.90
2019-04-03T20:42:24.771Z,8.90
2019-04-03T20:44:54.013Z,9.00
2019-04-03T20:47:26.559Z,9.00
2019-04-03T20:49:54.287Z,8.80
2019-04-03T20:52:23.584Z,8.80
2019-04-03T20:55:12.290Z,8.80
2019-04-03T20:57:54.320Z,9.00
2019-04-03T21:00:14.063Z,9.00
2019-04-03T21:02:43.312Z,9.00
2019-04-03T21:05:12.703Z,9.00
2019-04-03T21:08:01.369Z,9.00
2019-04-03T21:10:31.441Z,9.00
2019-04-03T21:13:01.481Z,8.90
2019-04-03T21:15:30.850Z,8.90
2019-04-03T21:18:00.292Z,9.10
2019-04-03T21:20:48.898Z,9.30
2019-04-03T21:23:18.154Z,9.40
2019-04-03T21:25:47.460Z,9.60
2019-04-03T21:28:16.733Z,9.60
2019-04-03T21:30:45.991Z,9.70
2019-04-03T21:33:17.452Z,9.80
2019-04-03T21:35:46.844Z,9.80
2019-04-03T21:38:16.096Z,9.90
2019-04-03T21:40:46.966Z,9.80
2019-04-03T21:43:16.356Z,9.70
2019-04-03T21:45:45.695Z,9.80
2019-04-03T21:48:14.967Z,9.90
2019-04-03T21:50:44.339Z,9.90
2019-04-03T21:53:13.763Z,9.80
2019-04-03T21:55:43.101Z,9.80
2019-04-03T21:58:12.338Z,9.90
2019-04-03T22:00:59.962Z,9.90
2019-04-03T22:03:29.371Z,9.70
2019-04-03T22:05:58.724Z,9.60
2019-04-03T22:08:29.093Z,9.60
2019-04-03T22:10:59.273Z,9.70
2019-04-03T22:13:28.524Z,9.70
2019-04-03T22:15:59.445Z,9.60
2019-04-03T22:18:28.796Z,9.70
2019-04-03T22:20:58.082Z,9.60
2019-04-03T22:23:27.359Z,9.70
2019-04-03T22:25:56.575Z,9.70
2019-04-03T22:28:25.906Z,9.70
2019-04-03T22:30:55.162Z,9.60
2019-04-03T22:33:43.768Z,9.60
2019-04-03T22:36:13.038Z,9.60
2019-04-03T22:38:42.385Z,9.60
2019-04-03T22:41:12.767Z,9.60
2019-04-03T22:43:42.268Z,9.50
2019-04-03T22:46:11.497Z,9.60
2019-04-03T22:48:40.776Z,9.60
2019-04-03T22:51:10.161Z,9.50
2019-04-03T22:53:39.902Z,9.60
2019-04-03T22:56:10.415Z,9.70
2019-04-03T22:58:39.749Z,9.70
2019-04-03T23:01:21.560Z,9.60
2019-04-03T23:03:50.820Z,9.50
2019-04-03T23:06:39.430Z,9.50
2019-04-03T23:09:09.174Z,9.50
2019-04-03T23:11:38.519Z,9.60
2019-04-03T23:14:07.763Z,9.70
2019-04-03T23:16:37.067Z,9.70
2019-04-03T23:19:06.482Z,9.80
2019-04-03T23:21:35.768Z,9.90
2019-04-03T23:24:05.113Z,10.00
2019-04-03T23:26:34.352Z,10.00
2019-04-03T23:29:05.168Z,10.00
2019-04-03T23:31:34.609Z,10.00
2019-04-03T23:34:03.838Z,10.00
2019-04-03T23:36:33.102Z,9.90
2019-04-03T23:39:02.352Z,9.90
2019-04-03T23:41:31.582Z,9.90
2019-04-03T23:44:00.844Z,9.80
2019-04-03T23:46:30.154Z,9.80
2019-04-03T23:48:59.433Z,9.80
2019-04-03T23:51:48.031Z,9.80
2019-04-03T23:54:17.374Z,9.80
2019-04-03T23:56:46.677Z,9.80
2019-04-03T23:59:17.110Z,9.70
